Track Степанов Александр

Time Latitude Longitude Accuracy (66% radius in meters) Altitude (meters) Speed (km/hour) Bearing (degrees) Battery (%) GPS flag
06:34:08 57.205184 60.114447 0 0 0 0 1 delete
06:34:07 57.205185 60.114548 0 0 0 0 1 delete
06:34:06 57.205185 60.114631 0 0 0 0 1 delete
06:34:05 57.205192 60.114737 0 0 0 0 1 delete
06:34:04 57.205217 60.114813 0 0 0 0 1 delete
06:34:03 57.205229 60.114881 0 0 0 0 1 delete
06:34:02 57.205245 60.114948 0 0 0 0 1 delete
06:34:01 57.205257 60.115016 0 0 0 0 1 delete
06:33:59 57.205267 60.115138 0 0 0 0 1 delete
06:33:57 57.205289 60.115176 0 0 0 0 1 delete
06:33:55 57.205318 60.115153 0 0 0 0 1 delete
06:33:54 57.205340 60.115117 0 0 0 0 1 delete
06:33:52 57.205378 60.115066 0 0 0 0 1 delete
06:33:50 57.205428 60.115006 0 0 0 0 1 delete
06:33:48 57.205482 60.114965 0 0 0 0 1 delete
06:33:47 57.205506 60.114926 0 0 0 0 1 delete
06:33:46 57.205532 60.114895 0 0 0 0 1 delete
06:33:45 57.205551 60.114857 0 0 0 0 1 delete
06:33:44 57.205567 60.114816 0 0 0 0 1 delete
06:33:43 57.205588 60.114774 0 0 0 0 1 delete
06:33:41 57.205627 60.114675 0 0 0 0 1 delete
06:33:40 57.205651 60.114632 0 0 0 0 1 delete
06:33:39 57.205674 60.114595 0 0 0 0 1 delete
06:33:38 57.205693 60.114556 0 0 0 0 1 delete
06:33:37 57.205712 60.114515 0 0 0 0 1 delete
06:33:36 57.205731 60.114473 0 0 0 0 1 delete
06:33:34 57.205770 60.114403 0 0 0 0 1 delete
06:33:33 57.205800 60.114376 0 0 0 0 1 delete
06:33:32 57.205821 60.114341 0 0 0 0 1 delete
06:33:30 57.205858 60.114268 0 0 0 0 1 delete
06:33:29 57.205887 60.114256 0 0 0 0 1 delete
06:33:27 57.205928 60.114215 0 0 0 0 1 delete
06:33:25 57.205975 60.114176 0 0 0 0 1 delete
06:33:23 57.206019 60.114127 0 0 0 0 1 delete
06:33:21 57.206061 60.114102 0 0 0 0 1 delete
06:33:20 57.206093 60.114079 0 0 0 0 1 delete
06:33:19 57.206124 60.114100 0 0 0 0 1 delete
06:33:18 57.206155 60.114102 0 0 0 0 1 delete
06:33:16 57.206212 60.114151 0 0 0 0 1 delete
06:33:15 57.206242 60.114183 0 0 0 0 1 delete
06:33:14 57.206276 60.114225 0 0 0 0 1 delete
06:33:13 57.206318 60.114254 0 0 0 0 1 delete
06:33:12 57.206356 60.114251 0 0 0 0 1 delete
06:33:11 57.206391 60.114258 0 0 0 0 1 delete
06:33:10 57.206442 60.114292 0 0 0 0 1 delete
06:33:09 57.206478 60.114294 0 0 0 0 1 delete
06:33:08 57.206504 60.114336 0 0 0 0 1 delete
06:33:06 57.206537 60.114363 0 0 0 0 1 delete
06:33:05 57.206565 60.114357 0 0 0 0 1 delete
06:33:04 57.206597 60.114352 0 0 0 0 1 delete